createdAt,value
2018-10-07T00:00:56.125Z,99.90
2018-10-07T00:03:25.114Z,99.90
2018-10-07T00:05:53.921Z,99.90
2018-10-07T00:08:22.716Z,99.90
2018-10-07T00:10:51.853Z,99.90
2018-10-07T00:13:20.783Z,99.90
2018-10-07T00:15:49.630Z,99.90
2018-10-07T00:18:18.478Z,99.90
2018-10-07T00:20:47.395Z,99.90
2018-10-07T00:23:16.685Z,99.90
2018-10-07T00:25:45.490Z,99.90
2018-10-07T00:28:14.391Z,99.90
2018-10-07T00:31:01.057Z,99.90
2018-10-07T00:33:30.136Z,99.90
2018-10-07T00:35:58.987Z,99.90
2018-10-07T00:38:27.893Z,99.90
2018-10-07T00:40:57.349Z,99.90
2018-10-07T00:43:27.353Z,99.90
2018-10-07T00:45:56.201Z,99.90
2018-10-07T00:48:25.154Z,99.90
2018-10-07T00:50:54.020Z,99.90
2018-10-07T00:53:23.159Z,99.90
2018-10-07T00:55:52.462Z,99.90
2018-10-07T00:58:21.294Z,99.90
2018-10-07T01:00:50.146Z,99.90
2018-10-07T01:03:19.112Z,99.90
2018-10-07T01:05:48.540Z,99.90
2018-10-07T01:08:17.399Z,99.90
2018-10-07T01:10:46.217Z,99.90
2018-10-07T01:13:15.141Z,99.90
2018-10-07T01:15:44.018Z,99.90
2018-10-07T01:18:12.860Z,99.90
2018-10-07T01:20:41.757Z,99.90
2018-10-07T01:23:11.245Z,99.90
2018-10-07T01:25:40.179Z,99.90
2018-10-07T01:28:08.965Z,99.90
2018-10-07T01:30:37.729Z,99.90
2018-10-07T01:33:06.850Z,99.90
2018-10-07T01:35:36.284Z,99.90
2018-10-07T01:38:05.317Z,99.90
2018-10-07T01:40:34.271Z,99.90
2018-10-07T01:43:03.043Z,99.90
2018-10-07T01:45:32.599Z,99.90
2018-10-07T01:48:01.386Z,99.90
2018-10-07T01:50:30.441Z,99.90
2018-10-07T01:52:59.350Z,99.90
2018-10-07T01:55:28.141Z,99.90
2018-10-07T01:57:57.183Z,99.90
2018-10-07T02:00:26.519Z,99.90
2018-10-07T02:02:55.317Z,99.90
2018-10-07T02:05:24.096Z,99.90
2018-10-07T02:07:53.126Z,99.90
2018-10-07T02:10:22.054Z,99.90
2018-10-07T02:12:50.899Z,99.90
2018-10-07T02:15:19.801Z,99.90
2018-10-07T02:18:05.623Z,99.90
2018-10-07T02:20:34.533Z,99.90
2018-10-07T02:23:04.105Z,99.90
2018-10-07T02:25:33.134Z,99.90
2018-10-07T02:28:02.596Z,99.90
2018-10-07T02:30:31.512Z,99.90
2018-10-07T02:33:00.528Z,99.90
2018-10-07T02:35:29.988Z,99.90
2018-10-07T02:37:58.746Z,99.90
2018-10-07T02:40:27.632Z,99.90
2018-10-07T02:42:57.118Z,99.90
2018-10-07T02:45:26.064Z,99.90
2018-10-07T02:47:55.562Z,99.90
2018-10-07T02:50:25.029Z,99.90
2018-10-07T02:52:55.989Z,99.90
2018-10-07T02:55:26.396Z,99.90
2018-10-07T02:57:57.095Z,99.90
2018-10-07T03:00:26.407Z,99.90
2018-10-07T03:02:55.517Z,99.90
2018-10-07T03:05:24.346Z,99.90
2018-10-07T03:07:53.797Z,99.90
2018-10-07T03:10:22.566Z,99.90
2018-10-07T03:12:51.492Z,99.90
2018-10-07T03:15:20.324Z,99.90
2018-10-07T03:17:49.066Z,99.90
2018-10-07T03:20:18.100Z,99.90
2018-10-07T03:22:47.587Z,99.90
2018-10-07T03:25:16.509Z,99.90
2018-10-07T03:27:45.471Z,99.90
2018-10-07T03:30:14.364Z,99.90
2018-10-07T03:32:43.305Z,99.90
2018-10-07T03:35:12.705Z,99.90
2018-10-07T03:37:41.452Z,99.90
2018-10-07T03:40:10.177Z,99.90
2018-10-07T03:42:39.178Z,99.90
2018-10-07T03:45:08.834Z,99.90
2018-10-07T03:47:37.733Z,99.90
2018-10-07T03:50:06.949Z,99.90
2018-10-07T03:52:35.765Z,99.90
2018-10-07T03:55:05.313Z,99.90
2018-10-07T03:57:34.079Z,99.90
2018-10-07T04:00:02.971Z,99.90
2018-10-07T04:02:32.046Z,99.90
2018-10-07T04:05:00.964Z,99.90
2018-10-07T04:07:30.476Z,99.90
2018-10-07T04:10:03.677Z,99.90
2018-10-07T04:12:32.641Z,99.90
2018-10-07T04:15:01.420Z,99.90
2018-10-07T04:17:30.381Z,99.90
2018-10-07T04:19:59.226Z,99.90
2018-10-07T04:22:28.938Z,99.90
2018-10-07T04:24:57.938Z,99.90
2018-10-07T04:27:26.902Z,99.90
2018-10-07T04:29:55.743Z,99.90
2018-10-07T04:32:24.654Z,99.90
2018-10-07T04:34:54.157Z,99.90
2018-10-07T04:37:22.901Z,99.90
2018-10-07T04:39:52.549Z,99.90
2018-10-07T04:42:21.413Z,99.90
2018-10-07T04:44:51.247Z,99.90
2018-10-07T04:47:20.655Z,99.90
2018-10-07T04:49:49.534Z,99.90
2018-10-07T04:52:18.545Z,99.90
2018-10-07T04:54:47.334Z,99.90
2018-10-07T04:57:16.942Z,99.90
2018-10-07T04:59:45.692Z,99.90
2018-10-07T05:02:14.576Z,99.90
2018-10-07T05:04:43.365Z,99.90
2018-10-07T05:07:12.197Z,99.90
2018-10-07T05:09:41.090Z,99.90
2018-10-07T05:12:10.416Z,99.90
2018-10-07T05:14:39.158Z,99.90
2018-10-07T05:17:09.111Z,99.90
2018-10-07T05:19:38.127Z,99.90
2018-10-07T05:22:06.918Z,99.90
2018-10-07T05:24:36.578Z,99.90
2018-10-07T05:27:05.707Z,99.90
2018-10-07T05:29:34.630Z,99.90
2018-10-07T05:32:03.398Z,99.90
2018-10-07T05:34:42.211Z,99.90
2018-10-07T05:37:12.231Z,99.90
2018-10-07T05:39:51.416Z,99.90
2018-10-07T05:42:37.253Z,99.90
2018-10-07T05:45:18.222Z,99.90
2018-10-07T05:47:46.955Z,99.90
2018-10-07T05:50:15.829Z,99.90
2018-10-07T05:52:54.657Z,99.90
2018-10-07T05:55:23.778Z,99.90
2018-10-07T05:58:04.997Z,99.90
2018-10-07T06:00:35.914Z,99.90
2018-10-07T06:04:09.541Z,99.90
2018-10-07T06:06:42.162Z,99.90
2018-10-07T06:09:17.113Z,99.90
2018-10-07T06:11:46.014Z,99.90
2018-10-07T06:14:25.945Z,99.90
2018-10-07T06:16:54.910Z,99.90
2018-10-07T06:19:24.305Z,99.90
2018-10-07T06:21:54.531Z,99.90
2018-10-07T06:24:23.772Z,99.90
2018-10-07T06:26:52.972Z,99.90
2018-10-07T06:29:22.258Z,99.90
2018-10-07T06:31:51.328Z,99.90
2018-10-07T06:34:20.243Z,99.90
2018-10-07T06:36:49.245Z,99.90
2018-10-07T06:39:22.946Z,99.90
2018-10-07T06:41:52.449Z,99.90
2018-10-07T06:44:22.015Z,99.90
2018-10-07T06:46:50.951Z,99.90
2018-10-07T06:49:20.159Z,99.90
2018-10-07T06:52:07.534Z,99.90
2018-10-07T06:54:36.459Z,99.90
2018-10-07T06:57:05.489Z,99.90
2018-10-07T06:59:35.149Z,99.90
2018-10-07T07:02:04.421Z,99.90
2018-10-07T07:04:33.662Z,99.90
2018-10-07T07:07:02.609Z,99.90
2018-10-07T07:09:32.125Z,99.90
2018-10-07T07:12:00.977Z,99.90
2018-10-07T07:14:29.773Z,99.90
2018-10-07T07:16:58.905Z,99.90
2018-10-07T07:22:40.222Z,99.90
2018-10-07T07:25:09.196Z,99.90
2018-10-07T07:27:37.994Z,99.90
2018-10-07T07:30:06.988Z,99.90
2018-10-07T07:32:36.103Z,99.90
2018-10-07T07:35:05.088Z,99.90
2018-10-07T07:37:33.948Z,99.90
2018-10-07T07:40:13.533Z,99.90
2018-10-07T07:42:42.446Z,99.90
2018-10-07T07:45:12.441Z,99.90
2018-10-07T07:47:42.474Z,99.90
2018-10-07T07:50:11.291Z,99.90
2018-10-07T07:52:40.702Z,99.90
2018-10-07T07:55:09.875Z,99.90
2018-10-07T07:57:39.398Z,99.90
2018-10-07T08:00:08.402Z,99.90
2018-10-07T08:02:37.572Z,99.90
2018-10-07T08:05:06.526Z,99.90
2018-10-07T08:07:36.096Z,99.90
2018-10-07T08:10:05.179Z,99.90
2018-10-07T08:12:34.173Z,99.90
2018-10-07T08:15:03.625Z,99.90
2018-10-07T08:17:33.027Z,99.90
2018-10-07T08:20:01.908Z,99.90
2018-10-07T08:22:30.883Z,99.90
2018-10-07T08:24:59.726Z,99.90
2018-10-07T08:27:28.810Z,99.90
2018-10-07T08:29:58.100Z,99.90
2018-10-07T08:32:27.252Z,99.90
2018-10-07T08:34:56.246Z,99.90
2018-10-07T08:37:25.928Z,99.90
2018-10-07T08:39:54.837Z,99.90
2018-10-07T08:42:23.857Z,99.90
2018-10-07T08:44:52.813Z,99.90
2018-10-07T08:47:21.736Z,99.90
2018-10-07T08:49:50.527Z,99.90
2018-10-07T08:52:19.370Z,99.90
2018-10-07T08:54:48.253Z,98.40
2018-10-07T08:57:17.478Z,94.90
2018-10-07T08:59:46.373Z,93.80
2018-10-07T09:02:15.358Z,93.40
2018-10-07T09:04:44.216Z,90.50
2018-10-07T09:07:13.093Z,90.70
2018-10-07T09:09:42.061Z,89.50
2018-10-07T09:12:11.517Z,89.60
2018-10-07T09:14:40.621Z,89.50
2018-10-07T09:17:09.570Z,85.90
2018-10-07T09:19:38.415Z,85.50
2018-10-07T09:22:07.502Z,85.20
2018-10-07T09:24:37.124Z,79.10
2018-10-07T09:27:06.312Z,79.70
2018-10-07T09:29:35.482Z,75.50
2018-10-07T09:32:04.414Z,76.30
2018-10-07T09:34:33.267Z,72.00
2018-10-07T09:37:02.222Z,72.80
2018-10-07T09:39:31.113Z,68.70
2018-10-07T09:42:00.535Z,68.10
2018-10-07T09:44:29.488Z,70.10
2018-10-07T09:46:58.411Z,72.20
2018-10-07T09:49:27.391Z,70.80
2018-10-07T09:51:56.334Z,71.80
2018-10-07T09:54:25.181Z,70.30
2018-10-07T09:56:54.207Z,71.50
2018-10-07T09:59:30.205Z,70.80
2018-10-07T10:01:58.974Z,68.20
2018-10-07T10:04:28.551Z,69.60
2018-10-07T10:06:57.872Z,70.40
2018-10-07T10:09:26.833Z,69.10
2018-10-07T10:11:56.611Z,70.50
2018-10-07T10:14:25.499Z,72.90
2018-10-07T10:17:01.692Z,74.50
2018-10-07T10:19:37.609Z,74.10
2018-10-07T10:22:11.792Z,75.40
2018-10-07T10:25:23.220Z,76.50
2018-10-07T10:28:00.055Z,79.40
2018-10-07T10:30:42.761Z,82.50
2018-10-07T10:33:19.073Z,83.60
2018-10-07T10:36:00.795Z,85.20
2018-10-07T10:38:42.917Z,82.80
2018-10-07T10:41:22.358Z,79.70
2018-10-07T10:43:57.978Z,77.90
2018-10-07T10:46:41.614Z,74.00
2018-10-07T10:49:22.558Z,73.00
2018-10-07T10:52:30.490Z,72.90
2018-10-07T10:55:05.881Z,72.50
2018-10-07T10:57:41.745Z,73.10
2018-10-07T11:00:16.345Z,74.30
2018-10-07T11:03:56.558Z,75.90
2018-10-07T11:08:39.097Z,75.40
2018-10-07T11:11:24.950Z,75.40
2018-10-07T11:14:03.989Z,75.10
2018-10-07T11:16:44.162Z,75.20
2018-10-07T11:19:23.105Z,74.90
2018-10-07T11:22:07.263Z,75.40
2018-10-07T11:24:52.776Z,74.20
2018-10-07T11:27:31.655Z,75.30
2018-10-07T11:30:12.389Z,77.20
2018-10-07T11:32:55.367Z,77.70
2018-10-07T11:37:05.961Z,76.70
2018-10-07T11:39:46.989Z,75.70
2018-10-07T11:42:27.103Z,74.70
2018-10-07T11:45:18.646Z,75.00
2018-10-07T11:47:59.424Z,74.80
2018-10-07T11:50:39.432Z,75.80
2018-10-07T11:53:21.248Z,76.00
2018-10-07T11:55:50.185Z,75.50
2018-10-07T11:58:19.592Z,75.60
2018-10-07T12:00:48.465Z,75.70
2018-10-07T12:03:18.041Z,75.00
2018-10-07T12:05:48.453Z,75.10
2018-10-07T12:08:17.663Z,75.60
2018-10-07T12:10:46.535Z,76.80
2018-10-07T12:13:17.036Z,75.90
2018-10-07T12:15:46.197Z,75.10
2018-10-07T12:18:15.449Z,75.70
2018-10-07T12:20:44.255Z,75.90
2018-10-07T12:23:13.891Z,76.90
2018-10-07T12:25:42.965Z,77.50
2018-10-07T12:28:12.395Z,78.40
2018-10-07T12:30:41.603Z,77.40
2018-10-07T12:33:11.783Z,77.00
2018-10-07T12:35:40.672Z,77.90
2018-10-07T12:38:09.490Z,78.50
2018-10-07T12:40:38.373Z,78.50
2018-10-07T12:43:07.457Z,78.30
2018-10-07T12:45:36.954Z,77.70
2018-10-07T12:48:09.375Z,77.20
2018-10-07T12:50:38.346Z,76.50
2018-10-07T12:53:07.262Z,76.20
2018-10-07T12:55:36.894Z,75.40
2018-10-07T12:58:05.949Z,75.00
2018-10-07T13:00:34.864Z,75.30
2018-10-07T13:03:05.019Z,74.40
2018-10-07T13:05:33.761Z,75.80
2018-10-07T13:08:02.569Z,76.00
2018-10-07T13:10:31.384Z,76.70
2018-10-07T13:13:00.385Z,78.00
2018-10-07T13:15:29.375Z,76.20
2018-10-07T13:17:58.276Z,76.90
2018-10-07T13:20:27.303Z,77.20
2018-10-07T13:22:56.279Z,76.60
2018-10-07T13:25:25.734Z,77.10
2018-10-07T13:27:57.947Z,76.80
2018-10-07T13:30:26.845Z,76.90
2018-10-07T13:32:56.009Z,75.90
2018-10-07T13:35:24.970Z,76.20
2018-10-07T13:37:53.780Z,76.60
2018-10-07T13:40:22.782Z,76.00
2018-10-07T13:42:52.039Z,76.10
2018-10-07T13:45:21.176Z,77.10
2018-10-07T13:47:51.074Z,77.20
2018-10-07T13:50:32.301Z,76.70
2018-10-07T13:53:04.647Z,77.70
2018-10-07T13:55:33.864Z,78.10
2018-10-07T13:58:08.803Z,77.10
2018-10-07T14:00:37.705Z,77.90
2018-10-07T14:03:09.403Z,78.50
2018-10-07T14:05:38.364Z,78.90
2018-10-07T14:08:07.348Z,77.70
2018-10-07T14:10:36.838Z,78.30
2018-10-07T14:13:05.750Z,78.10
2018-10-07T14:15:34.537Z,79.60
2018-10-07T14:18:03.615Z,78.60
2018-10-07T14:20:34.719Z,78.70
2018-10-07T14:23:03.667Z,79.80
2018-10-07T14:25:48.657Z,79.80
2018-10-07T14:28:18.029Z,80.60
2018-10-07T14:30:46.940Z,81.20
2018-10-07T14:33:15.757Z,80.80
2018-10-07T14:35:44.717Z,81.00
2018-10-07T14:38:13.571Z,80.10
2018-10-07T14:40:42.463Z,80.70
2018-10-07T14:43:11.331Z,81.90
2018-10-07T14:45:40.281Z,82.30
2018-10-07T14:48:09.223Z,81.60
2018-10-07T14:50:39.057Z,81.60
2018-10-07T14:53:08.376Z,82.50
2018-10-07T14:55:37.526Z,82.60
2018-10-07T14:58:06.841Z,84.40
2018-10-07T15:00:36.066Z,83.30
2018-10-07T15:03:05.315Z,84.10
2018-10-07T15:05:34.479Z,84.10
2018-10-07T15:08:03.684Z,84.70
2018-10-07T15:10:32.826Z,84.40
2018-10-07T15:13:01.848Z,84.80
2018-10-07T15:15:31.334Z,85.10
2018-10-07T15:18:00.743Z,85.50
2018-10-07T15:20:29.932Z,86.10
2018-10-07T15:22:58.940Z,86.40
2018-10-07T15:25:27.933Z,87.40
2018-10-07T15:27:56.813Z,87.00
2018-10-07T15:30:25.851Z,87.50
2018-10-07T15:32:56.022Z,88.10
2018-10-07T15:35:25.139Z,88.20
2018-10-07T15:37:54.266Z,88.70
2018-10-07T15:40:23.424Z,88.80
2018-10-07T15:42:52.385Z,89.10
2018-10-07T15:45:21.488Z,90.20
2018-10-07T15:47:51.100Z,90.60
2018-10-07T15:50:20.537Z,91.00
2018-10-07T15:52:49.642Z,91.40
2018-10-07T15:55:18.859Z,92.00
2018-10-07T15:57:48.153Z,92.70
2018-10-07T16:00:17.466Z,93.20
2018-10-07T16:02:46.581Z,93.80
2018-10-07T16:05:15.545Z,94.40
2018-10-07T16:07:44.453Z,95.10
2018-10-07T16:10:13.445Z,95.60
2018-10-07T16:12:46.552Z,96.60
2018-10-07T16:15:15.676Z,98.00
2018-10-07T16:17:44.704Z,99.90
2018-10-07T16:20:13.878Z,99.90
2018-10-07T16:22:42.841Z,99.90
2018-10-07T16:25:11.649Z,99.90
2018-10-07T16:27:40.724Z,99.90
2018-10-07T16:30:10.001Z,99.90
2018-10-07T16:32:39.205Z,99.90
2018-10-07T16:35:08.584Z,99.90
2018-10-07T16:37:37.782Z,99.90
2018-10-07T16:40:06.896Z,99.90
2018-10-07T16:42:36.114Z,99.90
2018-10-07T16:45:05.818Z,99.90
2018-10-07T16:47:34.620Z,99.90
2018-10-07T16:50:03.575Z,99.90
2018-10-07T16:52:32.733Z,99.90
2018-10-07T16:55:02.236Z,99.90
2018-10-07T16:57:31.620Z,99.90
2018-10-07T17:00:00.563Z,99.90
2018-10-07T17:02:29.685Z,99.90
2018-10-07T17:04:58.734Z,99.90
2018-10-07T17:07:27.699Z,99.90
2018-10-07T17:09:56.586Z,99.90
2018-10-07T17:12:25.806Z,99.90
2018-10-07T17:14:55.061Z,99.90
2018-10-07T17:17:24.190Z,99.90
2018-10-07T17:19:53.459Z,99.90
2018-10-07T17:22:22.505Z,99.90
2018-10-07T17:24:51.344Z,99.90
2018-10-07T17:27:20.409Z,99.90
2018-10-07T17:29:49.422Z,99.90
2018-10-07T17:32:24.731Z,99.90
2018-10-07T17:34:53.749Z,99.90
2018-10-07T17:37:23.010Z,99.90
2018-10-07T17:39:55.766Z,99.90
2018-10-07T17:42:24.680Z,99.90
2018-10-07T17:44:54.596Z,99.90
2018-10-07T17:47:25.760Z,99.90
2018-10-07T17:49:54.844Z,99.90
2018-10-07T17:52:27.657Z,99.90
2018-10-07T17:54:56.595Z,99.90
2018-10-07T17:57:25.527Z,99.90
2018-10-07T17:59:54.594Z,99.90
2018-10-07T18:02:28.918Z,99.90
2018-10-07T18:05:00.154Z,99.90
2018-10-07T18:07:30.324Z,99.90
2018-10-07T18:10:00.516Z,99.90
2018-10-07T18:12:29.515Z,99.90
2018-10-07T18:14:59.008Z,99.90
2018-10-07T18:17:28.188Z,99.90
2018-10-07T18:19:57.314Z,99.90
2018-10-07T18:22:26.621Z,99.90
2018-10-07T18:25:01.577Z,99.90
2018-10-07T18:27:30.771Z,99.90
2018-10-07T18:29:59.994Z,99.90
2018-10-07T18:32:29.026Z,99.90
2018-10-07T18:35:02.022Z,99.90
2018-10-07T18:37:30.894Z,99.90
2018-10-07T18:39:59.914Z,99.90
2018-10-07T18:42:29.026Z,99.90
2018-10-07T18:44:59.225Z,99.90
2018-10-07T18:47:46.123Z,99.90
2018-10-07T18:50:15.342Z,99.90
2018-10-07T18:52:44.611Z,99.90
2018-10-07T18:55:13.865Z,99.90
2018-10-07T18:57:43.074Z,99.90
2018-10-07T19:00:12.284Z,99.90
2018-10-07T19:02:41.700Z,99.90
2018-10-07T19:05:10.723Z,99.90
2018-10-07T19:07:39.733Z,99.90
2018-10-07T19:10:08.765Z,99.90
2018-10-07T19:12:38.424Z,99.90
2018-10-07T19:15:07.631Z,99.90
2018-10-07T19:17:36.854Z,99.90
2018-10-07T19:20:09.721Z,99.90
2018-10-07T19:22:38.769Z,99.90
2018-10-07T19:25:07.748Z,99.90
2018-10-07T19:27:37.644Z,99.90
2018-10-07T19:30:07.158Z,99.90
2018-10-07T19:32:39.260Z,99.90
2018-10-07T19:35:08.188Z,99.90
2018-10-07T19:37:37.056Z,99.90
2018-10-07T19:40:06.821Z,99.90
2018-10-07T19:42:35.815Z,99.90
2018-10-07T19:45:23.869Z,99.90
2018-10-07T19:47:52.861Z,99.90
2018-10-07T19:50:22.021Z,99.90
2018-10-07T19:52:50.983Z,99.90
2018-10-07T19:55:20.401Z,99.90
2018-10-07T20:00:43.390Z,99.90
2018-10-07T20:03:12.553Z,99.90
2018-10-07T20:05:42.116Z,99.90
2018-10-07T20:08:11.796Z,99.90
2018-10-07T20:10:40.868Z,99.90
2018-10-07T20:13:10.091Z,99.90
2018-10-07T20:15:39.061Z,99.90
2018-10-07T20:18:08.180Z,99.90
2018-10-07T20:20:37.362Z,99.90
2018-10-07T20:23:06.541Z,99.90
2018-10-07T20:25:35.562Z,99.90
2018-10-07T20:28:04.958Z,99.90
2018-10-07T20:30:34.810Z,99.90
2018-10-07T20:33:03.845Z,99.90
2018-10-07T20:35:33.030Z,99.90
2018-10-07T20:38:02.614Z,99.90
2018-10-07T20:40:31.967Z,99.90
2018-10-07T20:43:00.948Z,99.90
2018-10-07T20:45:29.783Z,99.90
2018-10-07T20:47:58.781Z,99.90
2018-10-07T20:50:27.813Z,99.90
2018-10-07T20:52:56.834Z,99.90
2018-10-07T20:55:26.483Z,99.90
2018-10-07T20:57:55.492Z,99.90
2018-10-07T21:00:24.336Z,99.90
2018-10-07T21:02:53.190Z,99.90
2018-10-07T21:05:22.178Z,99.90
2018-10-07T21:07:51.429Z,99.90
2018-10-07T21:10:20.407Z,99.90
2018-10-07T21:12:50.245Z,99.90
2018-10-07T21:15:19.759Z,99.90
2018-10-07T21:17:48.925Z,99.90
2018-10-07T21:20:17.733Z,99.90
2018-10-07T21:22:46.634Z,99.90
2018-10-07T21:25:15.597Z,99.90
2018-10-07T21:27:44.436Z,99.90
2018-10-07T21:30:13.465Z,99.90
2018-10-07T21:32:42.470Z,99.90
2018-10-07T21:35:11.685Z,99.90
2018-10-07T21:37:40.697Z,99.90
2018-10-07T21:40:09.618Z,99.90
2018-10-07T21:42:38.589Z,99.90
2018-10-07T21:45:07.475Z,99.90
2018-10-07T21:47:36.320Z,99.90
2018-10-07T21:50:05.239Z,99.90
2018-10-07T21:52:34.513Z,99.90
2018-10-07T21:55:03.718Z,99.90
2018-10-07T21:57:32.631Z,99.90
2018-10-07T22:00:01.504Z,99.90
2018-10-07T22:02:30.753Z,99.90
2018-10-07T22:04:59.664Z,99.90
2018-10-07T22:07:28.566Z,99.90
2018-10-07T22:12:52.768Z,99.90
2018-10-07T22:15:21.689Z,99.90
2018-10-07T22:17:50.666Z,99.90
2018-10-07T22:20:20.183Z,99.90
2018-10-07T22:22:49.655Z,99.90
2018-10-07T22:25:18.681Z,99.90
2018-10-07T22:27:48.292Z,99.90
2018-10-07T22:30:17.267Z,99.90
2018-10-07T22:32:46.194Z,99.90
2018-10-07T22:35:15.068Z,99.90
2018-10-07T22:37:43.981Z,99.90
2018-10-07T22:40:12.902Z,99.90
2018-10-07T22:42:42.453Z,99.90
2018-10-07T22:45:11.289Z,99.90
2018-10-07T22:47:40.088Z,99.90
2018-10-07T22:50:09.105Z,99.90
2018-10-07T22:52:38.276Z,99.90
2018-10-07T22:55:07.126Z,99.90
2018-10-07T22:57:35.978Z,99.90
2018-10-07T23:00:05.081Z,99.90
2018-10-07T23:02:34.222Z,99.90
2018-10-07T23:05:04.122Z,99.90
2018-10-07T23:07:33.069Z,99.90
2018-10-07T23:10:01.965Z,99.90
2018-10-07T23:12:30.809Z,99.90
2018-10-07T23:14:59.732Z,99.90
2018-10-07T23:17:28.704Z,99.90
2018-10-07T23:19:57.857Z,99.90
2018-10-07T23:22:26.632Z,99.90
2018-10-07T23:24:55.470Z,99.90
2018-10-07T23:27:24.365Z,99.90
2018-10-07T23:29:53.975Z,99.90
2018-10-07T23:32:22.927Z,99.90
2018-10-07T23:34:51.820Z,99.90
2018-10-07T23:37:21.573Z,99.90
2018-10-07T23:39:50.737Z,99.90
2018-10-07T23:42:19.945Z,99.90
2018-10-07T23:44:48.972Z,99.90
2018-10-07T23:47:18.495Z,99.90
2018-10-07T23:49:47.582Z,99.90
2018-10-07T23:52:16.382Z,99.90
2018-10-07T23:54:45.788Z,99.90
2018-10-07T23:57:14.565Z,99.90
2018-10-07T23:59:43.481Z,99.90
